Time;durP1;ratioP1;P1;durP2;ratioP2;P2;SDS_P1;SDS_P2;PMS_P1;PMS_P2;Temp;Humidity;BMP_temperature;BMP_pressure;BME280_temperature;BME280_humidity;BME280_pressure;Samples;Min_cycle;Max_cycle;Signal;HPM_P1;HPM_P2
2021/09/25 00:01:42;;;;;;;19.47;17.37;;;;;;;;;;5054334;28;20217;-61
2021/09/25 00:04:08;;;;;;;17.80;16.00;;;;;;;;;;5053817;28;20221;-62
2021/09/25 00:06:33;;;;;;;19.30;16.53;;;;;;;;;;5052789;28;20217;-62
2021/09/25 00:08:58;;;;;;;22.30;19.00;;;;;;;;;;5053920;28;20228;-61
2021/09/25 00:11:26;;;;;;;21.77;19.30;;;;;;;;;;5053623;28;20232;-62
2021/09/25 00:13:51;;;;;;;19.87;17.80;;;;;;;;;;5053451;28;20232;-61
2021/09/25 00:16:16;;;;;;;22.50;20.10;;;;;;;;;;5053741;28;20456;-61
2021/09/25 00:18:42;;;;;;;19.73;17.67;;;;;;;;;;5053821;28;20541;-61
2021/09/25 00:21:07;;;;;;;18.27;15.40;;;;;;;;;;5053157;28;20304;-61
2021/09/25 00:23:33;;;;;;;16.80;14.87;;;;;;;;;;5052595;28;20464;-61
2021/09/25 00:25:58;;;;;;;20.07;17.20;;;;;;;;;;5053486;28;20216;-61
2021/09/25 00:28:23;;;;;;;19.47;17.53;;;;;;;;;;5053651;28;20213;-61
2021/09/25 00:30:49;;;;;;;18.40;16.57;;;;;;;;;;5052510;28;20217;-61
2021/09/25 00:33:14;;;;;;;24.87;21.83;;;;;;;;;;5053202;28;20655;-62
2021/09/25 00:35:39;;;;;;;21.20;19.00;;;;;;;;;;5052807;28;20213;-61
2021/09/25 00:38:05;;;;;;;23.00;19.77;;;;;;;;;;5053093;28;20229;-62
2021/09/25 00:40:30;;;;;;;19.53;15.73;;;;;;;;;;5053448;28;20287;-61
2021/09/25 00:42:55;;;;;;;22.00;19.77;;;;;;;;;;5053182;28;20682;-62
2021/09/25 00:45:22;;;;;;;20.50;18.30;;;;;;;;;;5053640;28;20312;-61
2021/09/25 00:47:48;;;;;;;24.23;21.93;;;;;;;;;;5053332;28;20205;-62
2021/09/25 00:50:13;;;;;;;17.37;15.70;;;;;;;;;;5052989;28;20922;-61
2021/09/25 00:52:38;;;;;;;18.93;17.00;;;;;;;;;;5052546;28;20231;-61
2021/09/25 00:55:04;;;;;;;21.60;19.40;;;;;;;;;;5053365;28;20576;-62
2021/09/25 00:57:29;;;;;;;20.07;17.67;;;;;;;;;;5053512;28;20252;-61
2021/09/25 00:59:55;;;;;;;23.57;21.00;;;;;;;;;;5052896;28;20229;-61
2021/09/25 01:02:21;;;;;;;17.73;15.47;;;;;;;;;;5052366;28;20209;-60
2021/09/25 01:04:47;;;;;;;18.00;16.30;;;;;;;;;;5053405;28;20216;-61
2021/09/25 01:07:13;;;;;;;17.77;15.87;;;;;;;;;;5053074;28;20552;-60
2021/09/25 01:09:38;;;;;;;18.73;17.03;;;;;;;;;;5057278;28;20516;-61
2021/09/25 01:12:04;;;;;;;17.40;15.63;;;;;;;;;;5056762;28;20253;-61
2021/09/25 01:14:31;;;;;;;16.27;14.57;;;;;;;;;;5057421;28;20221;-61
2021/09/25 01:17:04;;;;;;;16.47;14.80;;;;;;;;;;5057246;28;20726;-61
2021/09/25 01:19:29;;;;;;;18.90;16.83;;;;;;;;;;5056955;28;20455;-61
2021/09/25 01:21:55;;;;;;;20.50;18.40;;;;;;;;;;5056935;28;20969;-60
2021/09/25 01:24:20;;;;;;;21.33;17.97;;;;;;;;;;5056953;28;20209;-61
2021/09/25 01:26:45;;;;;;;17.23;15.57;;;;;;;;;;5056050;28;20228;-61
2021/09/25 01:29:10;;;;;;;19.30;16.63;;;;;;;;;;5055610;28;20228;-61
2021/09/25 01:31:36;;;;;;;19.00;17.00;;;;;;;;;;5057111;28;20245;-62
2021/09/25 01:34:01;;;;;;;18.90;16.27;;;;;;;;;;5055505;28;20532;-61
2021/09/25 01:36:27;;;;;;;20.00;16.73;;;;;;;;;;5056076;28;20228;-62
2021/09/25 01:38:52;;;;;;;16.40;14.40;;;;;;;;;;5056618;28;20233;-62
2021/09/25 01:41:17;;;;;;;16.60;14.90;;;;;;;;;;5056346;28;20225;-61
2021/09/25 01:43:43;;;;;;;17.20;15.40;;;;;;;;;;5056833;28;20598;-61
2021/09/25 01:46:08;;;;;;;15.30;13.80;;;;;;;;;;5056675;28;20221;-61
2021/09/25 01:48:33;;;;;;;15.00;13.60;;;;;;;;;;5056646;28;20640;-61
2021/09/25 01:50:58;;;;;;;16.47;14.70;;;;;;;;;;5056163;28;20232;-60
2021/09/25 01:53:24;;;;;;;17.37;15.57;;;;;;;;;;5056579;28;20217;-61
2021/09/25 01:55:50;;;;;;;16.43;14.67;;;;;;;;;;5056672;28;20584;-61
2021/09/25 01:58:16;;;;;;;18.17;16.47;;;;;;;;;;5055139;28;20248;-61
2021/09/25 02:00:41;;;;;;;19.83;17.83;;;;;;;;;;5056380;28;20491;-61
2021/09/25 02:03:08;;;;;;;16.87;15.07;;;;;;;;;;5056142;28;20602;-61
2021/09/25 02:05:33;;;;;;;20.40;14.90;;;;;;;;;;5055207;28;20221;-61
2021/09/25 02:07:59;;;;;;;21.00;15.20;;;;;;;;;;5056042;28;20466;-61
2021/09/25 02:10:25;;;;;;;18.20;16.40;;;;;;;;;;5055956;28;20543;-61
2021/09/25 02:12:50;;;;;;;15.53;14.13;;;;;;;;;;5056304;28;20526;-61
2021/09/25 02:15:15;;;;;;;21.13;18.13;;;;;;;;;;5055699;28;20229;-61
2021/09/25 02:17:41;;;;;;;18.37;16.60;;;;;;;;;;5055890;28;20583;-62
2021/09/25 02:20:08;;;;;;;17.27;15.40;;;;;;;;;;5053403;28;20312;-61
2021/09/25 02:22:34;;;;;;;17.13;15.23;;;;;;;;;;5055932;28;20228;-62
2021/09/25 02:25:00;;;;;;;15.53;14.10;;;;;;;;;;5055504;28;20460;-61
2021/09/25 02:27:25;;;;;;;17.00;15.43;;;;;;;;;;5056068;28;20529;-61
2021/09/25 02:29:50;;;;;;;19.57;17.67;;;;;;;;;;5055698;28;20304;-61
2021/09/25 02:32:15;;;;;;;16.20;14.70;;;;;;;;;;5055398;28;20221;-61
2021/09/25 02:34:41;;;;;;;18.80;16.80;;;;;;;;;;5055799;28;20360;-61
2021/09/25 02:37:06;;;;;;;15.97;14.33;;;;;;;;;;5055362;28;20221;-61
2021/09/25 02:39:35;;;;;;;14.37;12.97;;;;;;;;;;5055651;28;20236;-61
2021/09/25 02:42:01;;;;;;;15.80;14.20;;;;;;;;;;5055072;28;20681;-61
2021/09/25 02:44:26;;;;;;;16.37;14.77;;;;;;;;;;5055628;28;20490;-61
2021/09/25 02:46:52;;;;;;;15.17;13.63;;;;;;;;;;5055446;28;20558;-62
2021/09/25 02:49:19;;;;;;;17.40;15.50;;;;;;;;;;5055127;28;20221;-61
2021/09/25 02:51:45;;;;;;;15.87;14.00;;;;;;;;;;5055601;28;20221;-61
2021/09/25 02:54:10;;;;;;;16.93;15.20;;;;;;;;;;5055293;28;20947;-61
2021/09/25 02:56:35;;;;;;;15.00;13.63;;;;;;;;;;5055478;28;20916;-61
2021/09/25 02:59:01;;;;;;;15.73;13.73;;;;;;;;;;5054785;28;20221;-62
2021/09/25 03:01:27;;;;;;;16.23;14.63;;;;;;;;;;5055093;28;20225;-61
2021/09/25 03:03:54;;;;;;;15.33;13.67;;;;;;;;;;5055154;28;20303;-61
2021/09/25 03:06:21;;;;;;;14.50;13.20;;;;;;;;;;5054778;28;20236;-61
2021/09/25 03:08:47;;;;;;;14.60;13.20;;;;;;;;;;5055053;28;20472;-61
2021/09/25 03:11:12;;;;;;;15.10;13.80;;;;;;;;;;5054599;28;20509;-62
2021/09/25 03:13:37;;;;;;;14.60;13.20;;;;;;;;;;5054889;28;20609;-62
2021/09/25 03:16:03;;;;;;;15.90;14.07;;;;;;;;;;5054776;28;20221;-62
2021/09/25 03:18:28;;;;;;;16.23;14.60;;;;;;;;;;5054510;28;20229;-60
2021/09/25 03:20:53;;;;;;;16.23;14.03;;;;;;;;;;5054923;28;20719;-61
2021/09/25 03:23:19;;;;;;;14.33;12.73;;;;;;;;;;5054249;28;20217;-61
2021/09/25 03:25:44;;;;;;;14.20;12.90;;;;;;;;;;5054896;28;20354;-61
2021/09/25 03:28:09;;;;;;;15.60;14.03;;;;;;;;;;5054404;28;20221;-61
2021/09/25 03:30:35;;;;;;;14.60;13.00;;;;;;;;;;5054330;28;20225;-61
2021/09/25 03:33:00;;;;;;;14.43;13.00;;;;;;;;;;5054950;28;20605;-61
2021/09/25 03:35:26;;;;;;;15.00;13.23;;;;;;;;;;5054286;28;20270;-62
2021/09/25 03:37:51;;;;;;;15.83;14.13;;;;;;;;;;5053485;28;20561;-61
2021/09/25 03:40:16;;;;;;;13.23;12.00;;;;;;;;;;5053874;28;20278;-60
2021/09/25 03:42:42;;;;;;;14.53;13.10;;;;;;;;;;5054437;28;20225;-61
2021/09/25 03:45:07;;;;;;;15.00;13.57;;;;;;;;;;5054104;28;20240;-61
2021/09/25 03:47:33;;;;;;;14.60;13.10;;;;;;;;;;5054362;28;20218;-61
2021/09/25 03:49:58;;;;;;;15.30;13.80;;;;;;;;;;5054582;28;20235;-61
2021/09/25 03:52:23;;;;;;;14.67;13.27;;;;;;;;;;5053873;28;20228;-61
2021/09/25 03:54:49;;;;;;;13.97;11.63;;;;;;;;;;5054381;28;20308;-61
2021/09/25 03:57:14;;;;;;;13.93;12.53;;;;;;;;;;5053935;28;20227;-61
2021/09/25 03:59:40;;;;;;;14.00;12.67;;;;;;;;;;5053271;28;20644;-61
2021/09/25 04:02:05;;;;;;;13.10;11.80;;;;;;;;;;5054042;28;20542;-61
2021/09/25 04:04:30;;;;;;;16.33;14.80;;;;;;;;;;5053446;28;20537;-61
2021/09/25 04:06:57;;;;;;;12.40;11.20;;;;;;;;;;5053985;28;20240;-61
2021/09/25 04:09:22;;;;;;;15.30;13.73;;;;;;;;;;5052600;28;20606;-61
2021/09/25 04:11:51;;;;;;;17.07;14.40;;;;;;;;;;5053572;28;20533;-61
2021/09/25 04:14:18;;;;;;;18.00;16.07;;;;;;;;;;5044263;28;20220;-61
2021/09/25 04:16:43;;;;;;;21.40;19.30;;;;;;;;;;5053806;28;20462;-61
2021/09/25 04:19:09;;;;;;;22.93;20.60;;;;;;;;;;5053474;28;20924;-61
2021/09/25 04:21:34;;;;;;;22.80;20.30;;;;;;;;;;5053999;28;20327;-61
2021/09/25 04:23:59;;;;;;;20.80;18.63;;;;;;;;;;5053962;28;20245;-60
2021/09/25 04:26:24;;;;;;;23.40;19.50;;;;;;;;;;5053226;28;20584;-61
2021/09/25 04:28:50;;;;;;;23.67;20.37;;;;;;;;;;5052847;28;20279;-61
2021/09/25 04:31:15;;;;;;;22.07;19.90;;;;;;;;;;5052929;28;20315;-61
2021/09/25 04:33:40;;;;;;;22.97;20.87;;;;;;;;;;5053692;28;20221;-61
2021/09/25 04:36:05;;;;;;;25.37;22.87;;;;;;;;;;5053611;28;20256;-60
2021/09/25 04:38:31;;;;;;;25.47;22.03;;;;;;;;;;5053228;28;20232;-61
2021/09/25 04:40:56;;;;;;;25.23;22.63;;;;;;;;;;5053533;28;20229;-61
2021/09/25 04:43:21;;;;;;;23.80;21.50;;;;;;;;;;5052402;28;20241;-61
2021/09/25 04:45:46;;;;;;;24.53;21.77;;;;;;;;;;5053474;28;20621;-62
2021/09/25 04:48:12;;;;;;;24.53;21.83;;;;;;;;;;5053198;28;20296;-61
2021/09/25 04:50:37;;;;;;;25.87;23.23;;;;;;;;;;5053222;28;20233;-61
2021/09/25 04:53:13;;;;;;;27.00;24.07;;;;;;;;;;5053677;28;20300;-62
2021/09/25 04:55:39;;;;;;;23.47;20.97;;;;;;;;;;5053261;28;20274;-61
2021/09/25 04:58:05;;;;;;;21.77;19.57;;;;;;;;;;5052344;28;20556;-61
2021/09/25 05:00:31;;;;;;;19.97;17.87;;;;;;;;;;5053012;28;20846;-61
2021/09/25 05:02:56;;;;;;;18.67;16.20;;;;;;;;;;5053356;28;20217;-61
2021/09/25 05:05:22;;;;;;;19.03;16.87;;;;;;;;;;5053052;28;20513;-61
2021/09/25 05:07:47;;;;;;;18.67;15.53;;;;;;;;;;5053104;28;20216;-61
2021/09/25 05:10:13;;;;;;;15.77;14.23;;;;;;;;;;5053125;28;20257;-61
2021/09/25 05:12:38;;;;;;;17.93;16.13;;;;;;;;;;5052204;28;20224;-61
2021/09/25 05:15:04;;;;;;;17.63;15.93;;;;;;;;;;5053262;28;20213;-61
2021/09/25 05:17:29;;;;;;;16.03;14.60;;;;;;;;;;5052859;28;20225;-61
2021/09/25 05:19:54;;;;;;;21.50;16.23;;;;;;;;;;5053459;28;20240;-60
2021/09/25 05:22:19;;;;;;;18.40;15.37;;;;;;;;;;5052961;28;20308;-61
2021/09/25 05:24:45;;;;;;;19.00;16.40;;;;;;;;;;5052985;28;20205;-61
2021/09/25 05:27:12;;;;;;;16.90;15.30;;;;;;;;;;5053091;28;20236;-61
2021/09/25 05:29:38;;;;;;;16.23;14.63;;;;;;;;;;5051913;28;20217;-61
2021/09/25 05:32:04;;;;;;;15.93;14.27;;;;;;;;;;5053135;28;20459;-60
2021/09/25 05:34:29;;;;;;;16.77;15.13;;;;;;;;;;5052601;28;20471;-61
2021/09/25 05:36:56;;;;;;;15.47;13.97;;;;;;;;;;5053155;28;20550;-62
2021/09/25 05:39:21;;;;;;;16.87;13.70;;;;;;;;;;5052539;28;20229;-62
2021/09/25 05:41:46;;;;;;;16.13;14.00;;;;;;;;;;5052983;28;20755;-61
2021/09/25 05:44:12;;;;;;;14.97;13.47;;;;;;;;;;5052044;28;20276;-62
2021/09/25 05:46:37;;;;;;;14.90;13.40;;;;;;;;;;5052376;28;20221;-62
2021/09/25 05:49:02;;;;;;;16.47;13.37;;;;;;;;;;5051619;28;20581;-61
2021/09/25 05:51:28;;;;;;;15.50;13.80;;;;;;;;;;5050961;28;20661;-60
2021/09/25 05:53:53;;;;;;;14.20;12.83;;;;;;;;;;5052915;28;20220;-61
2021/09/25 05:56:18;;;;;;;13.70;12.40;;;;;;;;;;5055036;28;20787;-60
2021/09/25 05:58:43;;;;;;;15.07;13.20;;;;;;;;;;5054974;28;20233;-61
2021/09/25 06:01:09;;;;;;;14.90;13.00;;;;;;;;;;5055287;28;20403;-62
2021/09/25 06:03:34;;;;;;;15.50;13.70;;;;;;;;;;5054760;28;20217;-62
2021/09/25 06:05:59;;;;;;;16.27;13.40;;;;;;;;;;5055967;28;20260;-62
2021/09/25 06:08:24;;;;;;;15.27;13.70;;;;;;;;;;5056214;28;20650;-60
2021/09/25 06:10:50;;;;;;;16.67;14.30;;;;;;;;;;5055947;28;20236;-62
2021/09/25 06:13:16;;;;;;;14.60;13.20;;;;;;;;;;5056047;28;20768;-64
2021/09/25 06:15:41;;;;;;;17.03;12.63;;;;;;;;;;5055794;28;20261;-62
2021/09/25 06:18:07;;;;;;;13.90;12.40;;;;;;;;;;5055961;28;20609;-62
2021/09/25 06:20:32;;;;;;;14.10;12.70;;;;;;;;;;5053229;28;20293;-62
2021/09/25 06:22:57;;;;;;;15.70;11.57;;;;;;;;;;5053236;28;20531;-59
2021/09/25 06:25:23;;;;;;;17.80;12.90;;;;;;;;;;5054382;28;20217;-61
2021/09/25 06:27:48;;;;;;;17.10;11.80;;;;;;;;;;5055875;28;20209;-61
2021/09/25 06:30:16;;;;;;;15.57;13.10;;;;;;;;;;5055723;28;20217;-62
2021/09/25 06:32:42;;;;;;;14.00;12.73;;;;;;;;;;5054376;28;20231;-61
2021/09/25 06:35:10;;;;;;;14.97;13.47;;;;;;;;;;5054983;28;20455;-62
2021/09/25 06:37:35;;;;;;;22.13;14.20;;;;;;;;;;5055201;28;20225;-61
2021/09/25 06:40:01;;;;;;;15.00;13.50;;;;;;;;;;5055350;28;20478;-61
2021/09/25 06:42:26;;;;;;;15.83;12.57;;;;;;;;;;5055311;28;20288;-61
2021/09/25 06:44:51;;;;;;;13.90;12.47;;;;;;;;;;5055777;28;20217;-61
2021/09/25 06:47:16;;;;;;;16.50;12.90;;;;;;;;;;5055632;28;20221;-61
2021/09/25 06:49:42;;;;;;;14.00;12.60;;;;;;;;;;5055313;28;20217;-60
2021/09/25 06:52:07;;;;;;;14.80;12.70;;;;;;;;;;5055693;28;20684;-60
2021/09/25 06:54:34;;;;;;;13.50;12.10;;;;;;;;;;5054829;28;20312;-62
2021/09/25 06:57:01;;;;;;;14.97;12.30;;;;;;;;;;5055234;28;20228;-62
2021/09/25 06:59:27;;;;;;;14.37;13.07;;;;;;;;;;5054658;28;20472;-62
2021/09/25 07:01:52;;;;;;;14.80;13.37;;;;;;;;;;5055099;28;20480;-59
2021/09/25 07:04:18;;;;;;;13.43;12.17;;;;;;;;;;5055069;28;20524;-61
2021/09/25 07:06:43;;;;;;;14.17;12.50;;;;;;;;;;5053978;28;20220;-60
2021/09/25 07:09:08;;;;;;;15.90;13.03;;;;;;;;;;5055218;28;20217;-60
2021/09/25 07:11:34;;;;;;;13.60;12.33;;;;;;;;;;5054611;28;20675;-60
2021/09/25 07:13:59;;;;;;;14.10;12.70;;;;;;;;;;5053945;28;20342;-61
2021/09/25 07:16:24;;;;;;;15.13;11.43;;;;;;;;;;5054670;28;20220;-62
2021/09/25 07:18:49;;;;;;;13.63;12.23;;;;;;;;;;5054911;28;20236;-61
2021/09/25 07:21:15;;;;;;;14.70;12.17;;;;;;;;;;5054982;28;20359;-60
2021/09/25 07:23:41;;;;;;;13.50;12.30;;;;;;;;;;5054386;28;20577;-60
2021/09/25 07:26:06;;;;;;;13.47;12.20;;;;;;;;;;5055026;28;20472;-60
2021/09/25 07:28:33;;;;;;;13.70;12.20;;;;;;;;;;5054018;28;20228;-60
2021/09/25 07:30:59;;;;;;;13.90;12.60;;;;;;;;;;5053566;28;20738;-60
2021/09/25 07:33:24;;;;;;;17.60;13.07;;;;;;;;;;5054181;28;20463;-60
2021/09/25 07:35:49;;;;;;;13.83;12.37;;;;;;;;;;5054619;28;20660;-60
2021/09/25 07:38:15;;;;;;;13.93;12.63;;;;;;;;;;5054621;28;20229;-60
2021/09/25 07:40:40;;;;;;;14.47;13.00;;;;;;;;;;5054192;28;20232;-61
2021/09/25 07:43:05;;;;;;;15.80;11.80;;;;;;;;;;5052675;28;20216;-61
2021/09/25 07:45:31;;;;;;;13.20;11.80;;;;;;;;;;5052835;28;20220;-60
2021/09/25 07:47:57;;;;;;;16.17;13.03;;;;;;;;;;5054448;28;20243;-61
2021/09/25 07:50:22;;;;;;;28.80;25.70;;;;;;;;;;5054228;28;20300;-61
2021/09/25 07:52:47;;;;;;;27.67;22.03;;;;;;;;;;5053888;28;20512;-61
2021/09/25 07:55:14;;;;;;;23.00;20.40;;;;;;;;;;5054428;28;20670;-61
2021/09/25 07:57:40;;;;;;;20.93;18.63;;;;;;;;;;5053380;28;20282;-61
2021/09/25 08:00:07;;;;;;;22.27;19.93;;;;;;;;;;5053687;28;20573;-61
2021/09/25 08:02:32;;;;;;;16.80;15.30;;;;;;;;;;5053820;28;20221;-60
2021/09/25 08:04:58;;;;;;;16.10;13.80;;;;;;;;;;5052717;28;20539;-61
2021/09/25 08:07:23;;;;;;;22.63;18.20;;;;;;;;;;5053976;28;20217;-60
2021/09/25 08:09:48;;;;;;;18.90;15.63;;;;;;;;;;5053537;28;20308;-60
2021/09/25 08:12:13;;;;;;;30.63;26.80;;;;;;;;;;5053933;28;20229;-61
2021/09/25 08:14:39;;;;;;;21.27;18.73;;;;;;;;;;5053465;28;20717;-60
2021/09/25 08:17:04;;;;;;;36.47;27.23;;;;;;;;;;5053245;28;20221;-60
2021/09/25 08:19:30;;;;;;;19.33;17.33;;;;;;;;;;5052308;28;20218;-61
2021/09/25 08:21:55;;;;;;;19.03;17.13;;;;;;;;;;5053690;28;20235;-59
2021/09/25 08:24:20;;;;;;;34.77;31.03;;;;;;;;;;5053795;28;20300;-60
2021/09/25 08:26:46;;;;;;;29.63;25.70;;;;;;;;;;5052500;28;20300;-60
2021/09/25 08:29:11;;;;;;;27.33;24.40;;;;;;;;;;5052417;28;20366;-59
2021/09/25 08:31:36;;;;;;;29.03;25.93;;;;;;;;;;5050369;28;20286;-60
2021/09/25 08:34:02;;;;;;;29.77;26.80;;;;;;;;;;5053238;28;20212;-60
2021/09/25 08:36:27;;;;;;;28.57;25.20;;;;;;;;;;5053670;28;20270;-60
2021/09/25 08:38:52;;;;;;;24.90;22.30;;;;;;;;;;5052970;28;20252;-59
2021/09/25 08:41:18;;;;;;;21.57;19.50;;;;;;;;;;5053565;28;20304;-59
2021/09/25 08:43:43;;;;;;;22.30;19.93;;;;;;;;;;5052165;28;20221;-59
2021/09/25 08:46:09;;;;;;;25.57;22.90;;;;;;;;;;5062176;28;20208;-59
2021/09/25 08:48:36;;;;;;;23.80;21.40;;;;;;;;;;5070875;28;20278;-59
2021/09/25 08:51:02;;;;;;;23.80;21.50;;;;;;;;;;5073585;28;20883;-60
2021/09/25 08:53:27;;;;;;;22.13;19.90;;;;;;;;;;5062150;28;20517;-60
2021/09/25 08:55:52;;;;;;;30.67;27.00;;;;;;;;;;5053264;28;20217;-61
2021/09/25 08:58:18;;;;;;;22.37;19.07;;;;;;;;;;5053577;28;20579;-60
2021/09/25 09:00:52;;;;;;;23.83;21.23;;;;;;;;;;5053913;28;20240;-59
2021/09/25 09:03:39;;;;;;;21.67;19.40;;;;;;;;;;5073454;28;20725;-60
2021/09/25 09:06:22;;;;;;;21.50;19.30;;;;;;;;;;5061214;28;20973;-60
2021/09/25 09:08:50;;;;;;;28.67;21.80;;;;;;;;;;5052927;28;20521;-60
2021/09/25 09:11:17;;;;;;;24.40;21.90;;;;;;;;;;5053153;28;20521;-59
2021/09/25 09:13:45;;;;;;;19.13;17.00;;;;;;;;;;5053097;28;20452;-60
2021/09/25 09:16:12;;;;;;;19.17;16.97;;;;;;;;;;5053245;28;20525;-60
2021/09/25 09:18:40;;;;;;;19.40;17.63;;;;;;;;;;5061144;28;20459;-59
2021/09/25 09:21:11;;;;;;;20.47;18.43;;;;;;;;;;5073130;28;20447;-60
2021/09/25 09:23:39;;;;;;;22.20;19.87;;;;;;;;;;5073283;28;20961;-59
2021/09/25 09:26:06;;;;;;;20.20;18.17;;;;;;;;;;5072873;28;20823;-61
2021/09/25 09:28:32;;;;;;;18.47;16.53;;;;;;;;;;5062239;28;20459;-60
2021/09/25 09:31:01;;;;;;;18.57;16.77;;;;;;;;;;5056869;28;20540;-60
2021/09/25 09:33:51;;;;;;;19.10;17.40;;;;;;;;;;5056945;28;20455;-60
2021/09/25 09:36:20;;;;;;;17.33;15.67;;;;;;;;;;5057094;28;20462;-60
2021/09/25 09:38:53;;;;;;;18.97;16.80;;;;;;;;;;5055380;28;20474;-60
2021/09/25 09:41:20;;;;;;;22.20;16.00;;;;;;;;;;5056865;28;20459;-60
2021/09/25 09:43:46;;;;;;;18.47;16.67;;;;;;;;;;5056406;28;20444;-60
2021/09/25 09:46:11;;;;;;;20.40;18.50;;;;;;;;;;5056763;28;20466;-60
2021/09/25 09:48:36;;;;;;;20.73;18.73;;;;;;;;;;5056239;28;20673;-60
2021/09/25 09:51:02;;;;;;;23.00;20.73;;;;;;;;;;5056742;28;20228;-60
2021/09/25 09:53:29;;;;;;;22.37;20.30;;;;;;;;;;5055158;28;20657;-60
2021/09/25 09:56:15;;;;;;;28.17;25.57;;;;;;;;;;5056797;28;20640;-60
2021/09/25 09:58:40;;;;;;;27.33;24.93;;;;;;;;;;5056164;28;20467;-60
2021/09/25 10:01:07;;;;;;;23.73;21.43;;;;;;;;;;5056586;28;20832;-60
2021/09/25 10:03:33;;;;;;;24.03;21.93;;;;;;;;;;5055872;28;20221;-59
2021/09/25 10:05:59;;;;;;;26.03;23.57;;;;;;;;;;5055685;28;20452;-60
2021/09/25 10:08:25;;;;;;;26.30;23.70;;;;;;;;;;5056067;28;20299;-61
2021/09/25 10:10:50;;;;;;;29.07;26.20;;;;;;;;;;5056054;28;20546;-60
2021/09/25 10:13:17;;;;;;;28.10;25.50;;;;;;;;;;5055430;28;20350;-61
2021/09/25 10:15:42;;;;;;;32.00;28.90;;;;;;;;;;5055993;28;20595;-61
2021/09/25 10:18:08;;;;;;;32.57;29.37;;;;;;;;;;5055895;28;20565;-60
2021/09/25 10:20:34;;;;;;;34.57;31.27;;;;;;;;;;5075909;28;20301;-60
2021/09/25 10:22:59;;;;;;;34.50;31.20;;;;;;;;;;5075020;28;20209;-60
2021/09/25 10:25:25;;;;;;;36.93;33.23;;;;;;;;;;5075845;28;20466;-61
2021/09/25 10:27:50;;;;;;;33.97;30.77;;;;;;;;;;5068533;28;20213;-61
2021/09/25 10:30:15;;;;;;;31.50;28.50;;;;;;;;;;5055791;28;20229;-60
2021/09/25 10:32:48;;;;;;;29.73;26.90;;;;;;;;;;5054367;28;20676;-60
2021/09/25 10:35:15;;;;;;;32.43;29.17;;;;;;;;;;5056031;28;20350;-60
2021/09/25 10:37:50;;;;;;;31.83;28.73;;;;;;;;;;5055551;28;20543;-60
2021/09/25 10:40:18;;;;;;;29.53;26.37;;;;;;;;;;5054723;28;20459;-61
2021/09/25 10:42:55;;;;;;;28.47;25.50;;;;;;;;;;5055396;28;20452;-61
2021/09/25 10:45:22;;;;;;;24.33;22.07;;;;;;;;;;5055596;28;20463;-61
2021/09/25 10:48:03;;;;;;;21.23;19.30;;;;;;;;;;5055298;28;20780;-62
2021/09/25 10:50:29;;;;;;;20.83;19.13;;;;;;;;;;5054935;28;20471;-63
2021/09/25 10:53:05;;;;;;;21.57;19.63;;;;;;;;;;5054723;28;20883;-61
2021/09/25 10:55:31;;;;;;;22.13;20.03;;;;;;;;;;5054952;28;20248;-61
2021/09/25 10:58:17;;;;;;;21.87;20.03;;;;;;;;;;5055307;28;20456;-62
2021/09/25 11:00:55;;;;;;;21.70;19.50;;;;;;;;;;5054952;28;20338;-62
2021/09/25 11:03:49;;;;;;;21.30;19.47;;;;;;;;;;5055423;28;20452;-61
2021/09/25 11:06:25;;;;;;;19.03;17.27;;;;;;;;;;5054007;28;20475;-60
2021/09/25 11:08:53;;;;;;;19.10;17.50;;;;;;;;;;5055297;28;20505;-61
2021/09/25 11:11:30;;;;;;;17.77;16.37;;;;;;;;;;5054545;28;20478;-61
2021/09/25 11:14:01;;;;;;;18.20;16.77;;;;;;;;;;5055350;28;20466;-61
2021/09/25 11:16:45;;;;;;;16.50;14.93;;;;;;;;;;5054781;28;20502;-62
2021/09/25 11:19:24;;;;;;;15.87;14.37;;;;;;;;;;5053451;28;20939;-62
2021/09/25 11:22:10;;;;;;;17.07;15.37;;;;;;;;;;5054957;28;20455;-60
2021/09/25 11:24:44;;;;;;;16.10;14.70;;;;;;;;;;5054989;28;20447;-61
2021/09/25 11:27:17;;;;;;;15.70;14.13;;;;;;;;;;5055310;28;20839;-60
2021/09/25 11:29:49;;;;;;;15.53;14.03;;;;;;;;;;5054457;28;20558;-61
2021/09/25 11:32:14;;;;;;;13.20;11.90;;;;;;;;;;5053770;28;20452;-61
2021/09/25 11:34:40;;;;;;;15.57;14.13;;;;;;;;;;5054497;28;20517;-61
2021/09/25 11:37:06;;;;;;;14.77;13.23;;;;;;;;;;5054548;28;20205;-61
2021/09/25 11:39:44;;;;;;;15.63;14.20;;;;;;;;;;5053106;28;20217;-61
2021/09/25 11:42:28;;;;;;;18.53;13.97;;;;;;;;;;5054646;28;20223;-60
2021/09/25 11:44:59;;;;;;;13.27;12.17;;;;;;;;;;5036744;28;20448;-61
2021/09/25 11:47:27;;;;;;;14.43;12.93;;;;;;;;;;5054642;28;20535;-60
2021/09/25 11:49:54;;;;;;;10.70;9.70;;;;;;;;;;5053948;28;20749;-60
2021/09/25 11:52:19;;;;;;;12.57;11.47;;;;;;;;;;5054313;28;20448;-60
2021/09/25 11:54:45;;;;;;;12.77;11.47;;;;;;;;;;5054383;28;20804;-60
2021/09/25 11:57:18;;;;;;;12.37;11.00;;;;;;;;;;5054439;28;20216;-60
2021/09/25 11:59:43;;;;;;;12.80;11.80;;;;;;;;;;5053763;28;20673;-60
2021/09/25 12:02:09;;;;;;;11.50;10.60;;;;;;;;;;5054293;28;20455;-60
2021/09/25 12:04:41;;;;;;;12.60;11.40;;;;;;;;;;5053916;28;20213;-61
2021/09/25 12:07:07;;;;;;;12.47;11.17;;;;;;;;;;5054441;28;20213;-60
2021/09/25 12:09:39;;;;;;;9.80;9.10;;;;;;;;;;5053692;28;20458;-61
2021/09/25 12:12:04;;;;;;;12.67;11.10;;;;;;;;;;5054151;28;20310;-60
2021/09/25 12:14:33;;;;;;;10.43;9.57;;;;;;;;;;5054261;28;20927;-62
2021/09/25 12:17:00;;;;;;;11.60;10.57;;;;;;;;;;5053798;28;20304;-61
2021/09/25 12:19:25;;;;;;;12.57;11.47;;;;;;;;;;5053652;28;20494;-61
2021/09/25 12:21:50;;;;;;;12.03;10.90;;;;;;;;;;5054023;28;20467;-60
2021/09/25 12:24:16;;;;;;;11.30;10.40;;;;;;;;;;5053936;28;20296;-61
2021/09/25 12:26:44;;;;;;;10.90;10.10;;;;;;;;;;5053656;28;20229;-61
2021/09/25 12:29:14;;;;;;;10.90;9.97;;;;;;;;;;5053776;28;20249;-61
2021/09/25 12:31:39;;;;;;;11.17;10.27;;;;;;;;;;5053194;28;20484;-61
2021/09/25 12:34:07;;;;;;;11.43;10.33;;;;;;;;;;5053885;28;20451;-61
2021/09/25 12:36:35;;;;;;;11.77;10.67;;;;;;;;;;5052920;28;20213;-61
2021/09/25 12:39:14;;;;;;;11.10;10.20;;;;;;;;;;5053337;28;20452;-61
2021/09/25 12:41:46;;;;;;;11.73;10.53;;;;;;;;;;5053608;28;20447;-61
2021/09/25 12:44:11;;;;;;;12.00;10.83;;;;;;;;;;5053868;28;20451;-61
2021/09/25 12:46:40;;;;;;;11.50;10.53;;;;;;;;;;5052988;28;20912;-61
2021/09/25 12:49:14;;;;;;;13.20;12.10;;;;;;;;;;5053798;28;20637;-60
2021/09/25 12:51:42;;;;;;;11.70;10.60;;;;;;;;;;5053208;28;20456;-61
2021/09/25 12:54:13;;;;;;;11.80;10.87;;;;;;;;;;5053584;28;20456;-61
2021/09/25 12:56:41;;;;;;;10.20;9.40;;;;;;;;;;5053385;28;20455;-61
2021/09/25 12:59:07;;;;;;;9.67;8.77;;;;;;;;;;5053450;28;20464;-61
2021/09/25 13:01:33;;;;;;;12.40;10.17;;;;;;;;;;5053579;28;20464;-61
2021/09/25 13:04:13;;;;;;;9.17;8.37;;;;;;;;;;5054617;28;20474;-61
2021/09/25 13:06:42;;;;;;;9.07;8.37;;;;;;;;;;5056166;28;20217;-62
2021/09/25 13:09:07;;;;;;;7.77;7.17;;;;;;;;;;5057884;28;20539;-62
2021/09/25 13:11:32;;;;;;;8.70;8.03;;;;;;;;;;5057396;28;20484;-61
2021/09/25 13:14:13;;;;;;;8.87;8.07;;;;;;;;;;5057046;28;20217;-60
2021/09/25 13:16:39;;;;;;;9.77;8.97;;;;;;;;;;5057017;28;20217;-60
2021/09/25 13:19:05;;;;;;;10.13;9.13;;;;;;;;;;5057204;28;20467;-60
2021/09/25 13:21:31;;;;;;;9.83;9.00;;;;;;;;;;5057194;28;20472;-62
2021/09/25 13:24:08;;;;;;;8.70;8.00;;;;;;;;;;5055959;28;20493;-61
2021/09/25 13:26:37;;;;;;;9.87;8.80;;;;;;;;;;5057301;28;20304;-61
2021/09/25 13:29:04;;;;;;;9.43;8.53;;;;;;;;;;5056862;28;20482;-62
2021/09/25 13:31:29;;;;;;;9.77;9.07;;;;;;;;;;5057105;28;20463;-61
2021/09/25 13:33:54;;;;;;;10.50;9.70;;;;;;;;;;5056702;28;20993;-61
2021/09/25 13:36:20;;;;;;;9.13;8.20;;;;;;;;;;5056169;28;20591;-61
2021/09/25 13:38:45;;;;;;;11.80;10.70;;;;;;;;;;5056432;28;20225;-61
2021/09/25 13:41:11;;;;;;;9.53;8.83;;;;;;;;;;5057178;28;20344;-61
2021/09/25 13:43:36;;;;;;;10.27;9.37;;;;;;;;;;5056759;28;20221;-61
2021/09/25 13:46:02;;;;;;;9.73;8.73;;;;;;;;;;5056420;28;20304;-61
2021/09/25 13:48:27;;;;;;;10.00;9.13;;;;;;;;;;5057199;28;20227;-61
2021/09/25 13:50:52;;;;;;;10.57;9.67;;;;;;;;;;5056513;28;20256;-61
2021/09/25 13:53:17;;;;;;;9.07;8.20;;;;;;;;;;5056064;28;20587;-60
2021/09/25 13:55:43;;;;;;;9.50;8.80;;;;;;;;;;5056369;28;20331;-61
2021/09/25 13:58:08;;;;;;;10.03;9.03;;;;;;;;;;5056936;28;20221;-61
2021/09/25 14:00:33;;;;;;;9.90;9.10;;;;;;;;;;5056449;28;20251;-61
2021/09/25 14:02:59;;;;;;;10.70;9.60;;;;;;;;;;5056173;28;20220;-61
2021/09/25 14:05:27;;;;;;;11.10;10.00;;;;;;;;;;5056528;28;20227;-61
2021/09/25 14:07:52;;;;;;;10.33;9.43;;;;;;;;;;5056023;28;20588;-62
2021/09/25 14:10:17;;;;;;;10.27;9.47;;;;;;;;;;5056051;28;20490;-61
2021/09/25 14:12:43;;;;;;;11.30;10.33;;;;;;;;;;5056068;28;20221;-61
2021/09/25 14:15:08;;;;;;;10.43;9.53;;;;;;;;;;5056898;28;20217;-61
2021/09/25 14:17:34;;;;;;;10.93;10.00;;;;;;;;;;5064994;28;20232;-61